Time;durP1;ratioP1;P1;durP2;ratioP2;P2;SDS_P1;SDS_P2;PMS_P1;PMS_P2;Temp;Humidity;BMP_temperature;BMP_pressure;BME280_temperature;BME280_humidity;BME280_pressure;Samples;Min_cycle;Max_cycle;Signal;HPM_P1;HPM_P2
2021/06/12 00:02:13;;;;;;;60.77;3.77;;;18.20;1.00;;;;;;4993747;28;21034;-68
2021/06/12 00:04:39;;;;;;;61.63;4.30;;;18.20;1.00;;;;;;4993823;28;20457;-69
2021/06/12 00:07:06;;;;;;;58.37;2.63;;;18.20;1.00;;;;;;4993479;28;20538;-69
2021/06/12 00:09:32;;;;;;;58.90;3.37;;;18.10;1.00;;;;;;4993402;28;20557;-68
2021/06/12 00:12:00;;;;;;;58.30;2.67;;;18.10;1.00;;;;;;4993814;28;20485;-69
2021/06/12 00:14:26;;;;;;;58.80;3.77;;;18.00;1.00;;;;;;4992815;28;20799;-68
2021/06/12 00:16:53;;;;;;;59.00;3.27;;;17.90;1.00;;;;;;4993126;28;20468;-68
2021/06/12 00:19:19;;;;;;;58.10;2.90;;;17.90;1.00;;;;;;4993490;28;20501;-68
2021/06/12 00:21:47;;;;;;;58.37;3.10;;;17.80;1.00;;;;;;4993358;28;20458;-68
2021/06/12 00:24:13;;;;;;;59.10;3.50;;;17.80;1.00;;;;;;4993389;28;20655;-68
2021/06/12 00:26:40;;;;;;;59.60;3.47;;;17.70;1.00;;;;;;4993257;28;20908;-67
2021/06/12 00:29:07;;;;;;;58.70;3.23;;;17.70;1.00;;;;;;4993422;28;20586;-66
2021/06/12 00:31:34;;;;;;;58.77;3.07;;;17.60;1.00;;;;;;4993075;28;20562;-68
2021/06/12 00:34:00;;;;;;;58.37;2.90;;;17.60;1.00;;;;;;4993299;28;20458;-69
2021/06/12 00:36:26;;;;;;;58.27;3.43;;;17.60;1.00;;;;;;4992918;28;20489;-68
2021/06/12 00:38:53;;;;;;;58.70;3.43;;;17.50;1.00;;;;;;4992975;28;20505;-69
2021/06/12 00:41:20;;;;;;;58.57;3.00;;;17.50;1.00;;;;;;4993252;28;20450;-67
2021/06/12 00:43:47;;;;;;;58.63;2.70;;;17.40;1.00;;;;;;4993123;28;20481;-67
2021/06/12 00:46:15;;;;;;;60.50;2.90;;;17.30;1.00;;;;;;5000676;28;20457;-67
2021/06/12 00:48:42;;;;;;;58.37;2.90;;;17.30;1.00;;;;;;5011906;28;20502;-67
2021/06/12 00:51:09;;;;;;;61.37;4.00;;;17.30;1.00;;;;;;5012378;28;20457;-67
2021/06/12 00:53:40;;;;;;;59.83;3.47;;;17.30;1.00;;;;;;5012660;28;20571;-68
2021/06/12 00:56:09;;;;;;;58.60;3.10;;;17.30;1.00;;;;;;5012508;28;20906;-67
2021/06/12 00:58:41;;;;;;;60.00;3.37;;;17.30;1.00;;;;;;5012253;28;20584;-67
2021/06/12 01:01:09;;;;;;;59.20;2.90;;;17.20;1.00;;;;;;5012359;28;20459;-67
2021/06/12 01:03:39;;;;;;;58.70;3.20;;;17.20;1.00;;;;;;5012180;28;20460;-67
2021/06/12 01:06:06;;;;;;;61.00;4.40;;;17.20;1.00;;;;;;5012627;28;20870;-67
2021/06/12 01:08:33;;;;;;;58.77;3.33;;;17.20;1.00;;;;;;5012325;28;20512;-67
2021/06/12 01:10:59;;;;;;;59.20;3.87;;;17.20;1.00;;;;;;5012262;28;20552;-67
2021/06/12 01:13:31;;;;;;;59.40;2.93;;;17.10;1.00;;;;;;5012072;28;21049;-66
2021/06/12 01:16:02;;;;;;;59.47;4.23;;;17.10;1.00;;;;;;5012130;28;20461;-66
2021/06/12 01:18:31;;;;;;;64.13;3.70;;;17.00;1.00;;;;;;5011641;28;20560;-67
2021/06/12 01:21:23;;;;;;;58.53;3.33;;;17.00;1.00;;;;;;5012499;28;20459;-68
2021/06/12 01:24:23;;;;;;;60.33;4.03;;;16.90;1.00;;;;;;4994340;28;20880;-66
2021/06/12 01:27:15;;;;;;;59.10;3.43;;;16.90;1.00;;;;;;5012304;28;20540;-67
2021/06/12 01:30:04;;;;;;;58.77;3.57;;;16.80;1.00;;;;;;5011591;28;20472;-67
2021/06/12 01:32:32;;;;;;;59.30;4.10;;;16.80;1.00;;;;;;5011872;28;20588;-67
2021/06/12 01:35:05;;;;;;;59.00;3.87;;;16.80;1.00;;;;;;5011726;28;20530;-67
2021/06/12 01:37:35;;;;;;;58.70;3.50;;;16.70;1.00;;;;;;5011766;28;20534;-67
2021/06/12 01:40:04;;;;;;;58.27;3.13;;;16.70;1.00;;;;;;5012195;28;20541;-67
2021/06/12 01:42:32;;;;;;;59.57;3.67;;;16.60;1.00;;;;;;5011831;28;20452;-68
2021/06/12 01:45:00;;;;;;;58.90;3.50;;;16.60;1.00;;;;;;5012507;28;20547;-69
2021/06/12 01:47:31;;;;;;;58.57;3.07;;;16.50;1.00;;;;;;5011388;28;20544;-68
2021/06/12 01:49:58;;;;;;;60.93;4.07;;;16.50;1.00;;;;;;5011695;28;20457;-68
2021/06/12 01:52:26;;;;;;;58.90;3.03;;;16.50;1.00;;;;;;5011400;28;20520;-67
2021/06/12 01:54:55;;;;;;;58.27;2.73;;;16.50;1.00;;;;;;4992975;28;20457;-68
2021/06/12 01:57:22;;;;;;;58.80;3.60;;;16.40;1.00;;;;;;5011579;28;20881;-68
2021/06/12 01:59:51;;;;;;;59.07;3.30;;;16.40;1.00;;;;;;5011620;28;20563;-68
2021/06/12 02:02:18;;;;;;;58.57;3.17;;;16.40;1.00;;;;;;5015827;28;20491;-68
2021/06/12 02:04:47;;;;;;;60.23;3.50;;;16.40;1.00;;;;;;5015727;28;20542;-68
2021/06/12 02:07:14;;;;;;;59.30;4.20;;;16.40;1.00;;;;;;5015428;28;20464;-68
2021/06/12 02:09:42;;;;;;;58.50;2.97;;;16.40;1.00;;;;;;5015464;28;20772;-68
2021/06/12 02:12:09;;;;;;;58.83;2.87;;;16.40;1.00;;;;;;5015364;28;20575;-68
2021/06/12 02:14:36;;;;;;;61.10;4.00;;;16.40;1.00;;;;;;5015183;28;20559;-68
2021/06/12 02:17:04;;;;;;;58.53;3.03;;;16.30;1.00;;;;;;5015105;28;20542;-69
2021/06/12 02:19:31;;;;;;;58.97;3.80;;;16.30;1.00;;;;;;5015129;28;20895;-68
2021/06/12 02:21:59;;;;;;;58.23;2.60;;;16.30;1.00;;;;;;5015422;28;21040;-68
2021/06/12 02:24:25;;;;;;;58.87;2.90;;;16.30;1.00;;;;;;5013889;28;20456;-68
2021/06/12 02:26:53;;;;;;;59.30;3.90;;;16.30;1.00;;;;;;5014748;28;20550;-68
2021/06/12 02:29:20;;;;;;;58.67;3.17;;;16.30;1.00;;;;;;5014933;28;20479;-68
2021/06/12 02:31:50;;;;;;;58.63;3.40;;;16.30;1.00;;;;;;5015177;28;20456;-68
2021/06/12 02:34:17;;;;;;;59.30;3.10;;;16.30;1.00;;;;;;5015381;28;20539;-68
2021/06/12 02:36:44;;;;;;;58.23;2.80;;;16.30;1.00;;;;;;5015151;28;20484;-68
2021/06/12 02:39:12;;;;;;;58.80;3.00;;;16.30;1.00;;;;;;5014805;28;20987;-68
2021/06/12 02:41:39;;;;;;;59.30;3.23;;;16.30;1.00;;;;;;5014770;28;20812;-68
2021/06/12 02:44:06;;;;;;;58.80;2.90;;;16.20;1.00;;;;;;5015109;28;20565;-68
2021/06/12 02:46:37;;;;;;;58.70;3.10;;;16.20;1.00;;;;;;5014699;28;20520;-67
2021/06/12 02:49:06;;;;;;;58.60;2.93;;;16.10;1.00;;;;;;5014849;28;20467;-67
2021/06/12 02:51:35;;;;;;;59.27;3.93;;;16.10;1.00;;;;;;5014773;28;20994;-68
2021/06/12 02:54:02;;;;;;;59.63;4.10;;;16.10;1.00;;;;;;5014518;28;20525;-68
2021/06/12 02:56:32;;;;;;;60.50;4.13;;;16.10;1.00;;;;;;5013520;28;20876;-68
2021/06/12 02:59:04;;;;;;;59.00;3.17;;;16.10;1.00;;;;;;5014161;28;20564;-68
2021/06/12 03:01:31;;;;;;;58.60;2.90;;;16.10;1.00;;;;;;5014719;28;20459;-69
2021/06/12 03:03:58;;;;;;;58.33;2.90;;;16.00;1.00;;;;;;5014461;28;20538;-67
2021/06/12 03:06:27;;;;;;;59.27;2.90;;;16.00;1.00;;;;;;5014156;28;20535;-68
2021/06/12 03:08:54;;;;;;;58.57;3.70;;;16.00;1.00;;;;;;5014164;28;20979;-69
2021/06/12 03:11:22;;;;;;;58.90;3.00;;;16.00;1.00;;;;;;5014261;28;20475;-68
2021/06/12 03:13:53;;;;;;;60.10;4.70;;;16.00;1.00;;;;;;5014294;28;20483;-68
2021/06/12 03:16:19;;;;;;;58.53;2.80;;;16.00;1.00;;;;;;5014248;28;20984;-68
2021/06/12 03:18:47;;;;;;;58.47;2.80;;;16.00;1.00;;;;;;5014390;28;20467;-68
2021/06/12 03:21:15;;;;;;;58.47;2.90;;;15.90;1.00;;;;;;5014063;28;20890;-69
2021/06/12 03:23:42;;;;;;;59.77;3.23;;;15.90;1.00;;;;;;5014499;28;20530;-68
2021/06/12 03:26:10;;;;;;;58.60;3.40;;;15.80;1.00;;;;;;5012935;28;20448;-67
2021/06/12 03:28:38;;;;;;;59.30;3.80;;;15.80;1.00;;;;;;5013663;28;20465;-67
2021/06/12 03:31:07;;;;;;;59.43;3.23;;;15.80;1.00;;;;;;5013971;28;20544;-68
2021/06/12 03:33:33;;;;;;;59.40;3.57;;;15.80;1.00;;;;;;5013796;28;20487;-68
2021/06/12 03:36:01;;;;;;;59.20;3.50;;;15.80;1.00;;;;;;5014347;28;20524;-69
2021/06/12 03:38:29;;;;;;;58.83;3.33;;;15.70;1.00;;;;;;5013935;28;20574;-68
2021/06/12 03:40:56;;;;;;;58.90;3.77;;;15.70;1.00;;;;;;5013810;28;20456;-69
2021/06/12 03:43:24;;;;;;;58.40;3.10;;;15.70;1.00;;;;;;5013732;28;20454;-68
2021/06/12 03:45:56;;;;;;;58.90;3.17;;;15.70;1.00;;;;;;5013772;28;20447;-68
2021/06/12 03:48:25;;;;;;;58.27;3.00;;;15.70;1.00;;;;;;5013459;28;20482;-68
2021/06/12 03:50:53;;;;;;;58.50;3.23;;;15.60;1.00;;;;;;5013793;28;20484;-67
2021/06/12 03:53:20;;;;;;;59.50;4.13;;;15.60;1.00;;;;;;5013607;28;20877;-67
2021/06/12 03:55:48;;;;;;;58.47;3.30;;;15.60;1.00;;;;;;5013563;28;20451;-68
2021/06/12 03:58:15;;;;;;;58.57;3.27;;;15.60;1.00;;;;;;5011832;28;20479;-68
2021/06/12 04:00:44;;;;;;;59.47;3.17;;;15.50;1.00;;;;;;5012230;28;20591;-68
2021/06/12 04:03:10;;;;;;;60.10;3.40;;;15.50;1.00;;;;;;5012721;28;20545;-68
2021/06/12 04:05:38;;;;;;;58.53;3.30;;;15.50;1.00;;;;;;5012559;28;20487;-68
2021/06/12 04:08:05;;;;;;;59.50;3.37;;;15.50;1.00;;;;;;5012106;28;20560;-68
2021/06/12 04:10:31;;;;;;;58.80;2.97;;;15.50;1.00;;;;;;5012447;28;20447;-68
2021/06/12 04:12:58;;;;;;;58.70;3.73;;;15.50;1.00;;;;;;5012165;28;20484;-67
2021/06/12 04:15:24;;;;;;;58.97;3.90;;;15.50;1.00;;;;;;5012139;28;20545;-68
2021/06/12 04:17:58;;;;;;;58.97;3.83;;;15.50;1.00;;;;;;5012111;28;20528;-68
2021/06/12 04:20:25;;;;;;;58.80;3.27;;;15.50;1.00;;;;;;5012320;28;20447;-68
2021/06/12 04:22:53;;;;;;;59.27;2.97;;;15.50;1.00;;;;;;5011597;28;20451;-69
2021/06/12 04:25:19;;;;;;;59.87;3.27;;;15.50;1.00;;;;;;5012094;28;20546;-69
2021/06/12 04:27:45;;;;;;;58.90;4.07;;;15.50;1.00;;;;;;5011753;28;20581;-69
2021/06/12 04:30:15;;;;;;;59.47;3.77;;;15.50;1.00;;;;;;4993874;28;20550;-69
2021/06/12 04:32:41;;;;;;;58.77;3.20;;;15.50;1.00;;;;;;5012033;28;20556;-68
2021/06/12 04:35:08;;;;;;;59.10;3.20;;;15.60;1.00;;;;;;5012157;28;20542;-68
2021/06/12 04:37:35;;;;;;;59.57;3.80;;;15.60;1.00;;;;;;5011736;28;20893;-68
2021/06/12 04:40:03;;;;;;;61.23;4.27;;;15.70;1.00;;;;;;5011840;28;21008;-68
2021/06/12 04:42:29;;;;;;;58.40;2.77;;;15.70;1.00;;;;;;5011706;28;20448;-68
2021/06/12 04:44:56;;;;;;;58.63;3.37;;;15.80;1.00;;;;;;5012081;28;20507;-69
2021/06/12 04:47:22;;;;;;;58.37;2.97;;;15.90;1.00;;;;;;5011877;28;20459;-69
2021/06/12 04:49:49;;;;;;;59.63;3.43;;;16.00;1.00;;;;;;5011562;28;20472;-69
2021/06/12 04:52:15;;;;;;;58.70;2.90;;;16.10;1.00;;;;;;5011599;28;20575;-68
2021/06/12 04:54:41;;;;;;;59.50;4.40;;;16.10;1.00;;;;;;5011632;28;20452;-69
2021/06/12 04:57:09;;;;;;;59.47;3.30;;;16.10;1.00;;;;;;5011297;28;20460;-68
2021/06/12 04:59:35;;;;;;;58.60;2.77;;;16.10;1.00;;;;;;5005440;28;122983;-68
2021/06/12 05:02:02;;;;;;;58.97;3.23;;;16.20;1.00;;;;;;5004246;28;20453;-69
2021/06/12 05:04:28;;;;;;;59.47;4.97;;;16.20;1.00;;;;;;4992804;28;20451;-69
2021/06/12 05:06:54;;;;;;;58.80;3.20;;;16.20;1.00;;;;;;4992522;28;20906;-69
2021/06/12 05:09:21;;;;;;;58.27;2.90;;;16.20;1.00;;;;;;4992394;28;20476;-68
2021/06/12 05:11:47;;;;;;;59.27;3.53;;;16.30;1.00;;;;;;4992819;28;20450;-69
2021/06/12 05:14:15;;;;;;;59.40;3.40;;;16.30;1.00;;;;;;4992685;28;20845;-68
2021/06/12 05:16:41;;;;;;;58.17;2.80;;;16.40;1.00;;;;;;4992479;28;20518;-69
2021/06/12 05:19:08;;;;;;;59.10;3.50;;;16.40;1.00;;;;;;4992500;28;20506;-69
2021/06/12 05:21:37;;;;;;;59.37;3.63;;;16.50;1.00;;;;;;4992557;28;20537;-69
2021/06/12 05:24:04;;;;;;;58.80;3.77;;;16.60;1.00;;;;;;4992292;28;20540;-68
2021/06/12 05:26:31;;;;;;;58.60;3.23;;;16.60;1.00;;;;;;4992509;28;20556;-69
2021/06/12 05:28:57;;;;;;;58.90;3.63;;;16.70;1.00;;;;;;4992610;28;20477;-69
2021/06/12 05:31:25;;;;;;;58.30;3.27;;;16.80;1.00;;;;;;4991631;28;20458;-68
2021/06/12 05:33:51;;;;;;;58.50;3.20;;;16.90;1.00;;;;;;4992252;28;20502;-69
2021/06/12 05:36:18;;;;;;;58.70;3.13;;;17.00;1.00;;;;;;4991718;28;20504;-68
2021/06/12 05:38:44;;;;;;;58.70;2.87;;;17.10;1.00;;;;;;4992507;28;20478;-69
2021/06/12 05:41:10;;;;;;;58.73;3.17;;;17.20;1.00;;;;;;4992746;28;20549;-69
2021/06/12 05:43:36;;;;;;;58.10;2.50;;;17.30;1.00;;;;;;4992318;28;20579;-69
2021/06/12 05:46:03;;;;;;;58.20;3.10;;;17.40;1.00;;;;;;4992581;28;20549;-68
2021/06/12 05:48:31;;;;;;;58.80;3.90;;;17.50;1.00;;;;;;4992397;28;20474;-69
2021/06/12 05:50:57;;;;;;;59.50;3.67;;;17.60;1.00;;;;;;4992119;28;20457;-68
2021/06/12 05:53:25;;;;;;;58.20;2.60;;;17.70;1.00;;;;;;4992302;28;20498;-69
2021/06/12 05:55:52;;;;;;;58.53;3.37;;;17.80;1.00;;;;;;4992280;28;20459;-69
2021/06/12 05:58:18;;;;;;;59.43;3.80;;;17.90;1.00;;;;;;4991828;28;20520;-69
2021/06/12 06:00:45;;;;;;;59.43;3.53;;;18.00;1.00;;;;;;4991940;28;20450;-68
2021/06/12 06:03:11;;;;;;;58.77;3.17;;;18.10;1.00;;;;;;4992236;28;20879;-69
2021/06/12 06:05:39;;;;;;;58.47;3.27;;;18.20;1.00;;;;;;5011646;28;20488;-68
2021/06/12 06:08:07;;;;;;;58.63;3.20;;;18.30;1.00;;;;;;5011536;28;20474;-69
2021/06/12 06:10:33;;;;;;;59.83;4.17;;;18.40;1.00;;;;;;5011752;28;20678;-69
2021/06/12 06:13:01;;;;;;;58.60;3.23;;;18.60;1.00;;;;;;5011766;28;20975;-69
2021/06/12 06:15:28;;;;;;;59.40;4.30;;;18.70;1.00;;;;;;5012072;28;20852;-70
2021/06/12 06:17:54;;;;;;;58.30;2.90;;;18.80;1.00;;;;;;5011273;28;20914;-69
2021/06/12 06:20:21;;;;;;;58.57;3.43;;;18.90;1.00;;;;;;5011345;28;20585;-70
2021/06/12 06:22:49;;;;;;;58.87;3.90;;;18.90;1.00;;;;;;5011766;28;20481;-70
2021/06/12 06:25:15;;;;;;;57.70;2.63;;;19.00;1.00;;;;;;5011704;28;20878;-68
2021/06/12 06:27:41;;;;;;;58.33;3.10;;;19.10;1.00;;;;;;5011749;28;20532;-69
2021/06/12 06:30:09;;;;;;;58.20;3.13;;;19.20;1.00;;;;;;5011711;28;20492;-68
2021/06/12 06:32:36;;;;;;;58.90;3.30;;;19.20;1.00;;;;;;5010135;28;20569;-69
2021/06/12 06:35:04;;;;;;;58.80;3.00;;;19.30;1.00;;;;;;5006398;28;20461;-69
2021/06/12 06:37:30;;;;;;;59.83;2.80;;;19.40;1.00;;;;;;4991676;28;20928;-68
2021/06/12 06:39:58;;;;;;;58.50;2.50;;;19.50;1.00;;;;;;4991969;28;20482;-69
2021/06/12 06:42:24;;;;;;;58.60;2.80;;;19.50;1.00;;;;;;4992084;28;20530;-69
2021/06/12 06:44:51;;;;;;;58.37;3.00;;;19.60;1.00;;;;;;4991656;28;20454;-69
2021/06/12 06:47:17;;;;;;;58.30;3.07;;;19.70;1.00;;;;;;4993890;28;20443;-69
2021/06/12 06:49:43;;;;;;;58.60;3.33;;;19.70;1.00;;;;;;4995312;28;20498;-69
2021/06/12 06:52:10;;;;;;;57.77;2.63;;;19.90;1.00;;;;;;4995292;28;20447;-69
2021/06/12 06:54:36;;;;;;;58.10;2.73;;;19.90;1.00;;;;;;4995039;28;21092;-68
2021/06/12 06:57:05;;;;;;;58.30;3.10;;;20.00;1.00;;;;;;4995031;28;20588;-67
2021/06/12 06:59:33;;;;;;;58.03;3.20;;;20.10;1.00;;;;;;4994355;28;20575;-68
2021/06/12 07:01:59;;;;;;;58.90;3.23;;;20.20;1.00;;;;;;4994792;28;20949;-68
2021/06/12 07:04:26;;;;;;;58.50;2.90;;;20.30;1.00;;;;;;4993901;28;20481;-67
2021/06/12 07:06:52;;;;;;;58.70;3.20;;;20.50;1.00;;;;;;4994029;28;20601;-66
2021/06/12 07:09:18;;;;;;;58.77;2.70;;;20.60;1.00;;;;;;4994808;28;20511;-67
2021/06/12 07:11:45;;;;;;;58.77;3.20;;;20.60;1.00;;;;;;4994869;28;20481;-67
2021/06/12 07:14:13;;;;;;;58.90;2.97;;;20.70;1.00;;;;;;4994908;28;20623;-67
2021/06/12 07:16:40;;;;;;;58.30;2.90;;;20.80;1.00;;;;;;4994349;28;21008;-67
2021/06/12 07:19:06;;;;;;;57.73;2.77;;;20.90;1.00;;;;;;4994891;28;20563;-67
2021/06/12 07:21:32;;;;;;;59.17;3.10;;;21.00;1.00;;;;;;4994661;28;20454;-68
2021/06/12 07:23:59;;;;;;;58.67;2.80;;;21.10;1.00;;;;;;4994815;28;20487;-67
2021/06/12 07:26:25;;;;;;;58.73;3.13;;;21.30;1.00;;;;;;4994573;28;20592;-66
2021/06/12 07:28:51;;;;;;;62.50;5.10;;;21.40;1.00;;;;;;4994354;28;20509;-68
2021/06/12 07:31:19;;;;;;;59.13;3.73;;;21.50;1.00;;;;;;4994236;28;20548;-68
2021/06/12 07:33:45;;;;;;;58.60;3.17;;;21.60;1.00;;;;;;4994366;28;20555;-68
2021/06/12 07:36:12;;;;;;;59.00;3.73;;;21.70;1.00;;;;;;5009782;28;20539;-68
2021/06/12 07:38:38;;;;;;;58.17;3.30;;;21.80;1.00;;;;;;5013779;28;20567;-68
2021/06/12 07:41:04;;;;;;;58.93;3.77;;;21.90;1.00;;;;;;5013963;28;20488;-67
2021/06/12 07:43:31;;;;;;;58.50;2.90;;;22.00;1.00;;;;;;5013722;28;20503;-68
2021/06/12 07:45:57;;;;;;;58.73;2.80;;;22.10;1.00;;;;;;5013864;28;20825;-67
2021/06/12 07:48:25;;;;;;;58.67;2.77;;;22.30;1.00;;;;;;5013558;28;20557;-68
2021/06/12 07:50:51;;;;;;;58.30;2.80;;;22.40;1.00;;;;;;5013544;28;20454;-67
2021/06/12 07:53:18;;;;;;;58.37;3.43;;;22.60;1.00;;;;;;5013666;28;20569;-67
2021/06/12 07:55:44;;;;;;;58.60;3.30;;;22.80;1.00;;;;;;5013664;28;20478;-68
2021/06/12 07:58:10;;;;;;;58.13;2.70;;;22.90;1.00;;;;;;5012280;28;20559;-68
2021/06/12 08:00:37;;;;;;;58.40;3.10;;;23.00;1.00;;;;;;5013563;28;20515;-68
2021/06/12 08:03:03;;;;;;;58.87;3.40;;;23.10;1.00;;;;;;5013554;28;20442;-68
2021/06/12 08:05:31;;;;;;;60.70;4.20;;;23.20;1.00;;;;;;5013236;28;21072;-67
2021/06/12 08:07:58;;;;;;;58.97;3.40;;;23.40;1.00;;;;;;5013241;28;20552;-67
2021/06/12 08:10:25;;;;;;;57.67;2.80;;;23.60;1.00;;;;;;5012461;28;20446;-67
2021/06/12 08:12:51;;;;;;;58.77;3.17;;;23.80;1.00;;;;;;5009658;28;20928;-68
2021/06/12 08:15:18;;;;;;;59.37;3.10;;;24.00;1.00;;;;;;4993900;28;20538;-68
2021/06/12 08:17:44;;;;;;;58.20;2.50;;;24.10;1.00;;;;;;4993594;28;20540;-68
2021/06/12 08:20:12;;;;;;;58.70;3.00;;;24.20;1.00;;;;;;4993640;28;20540;-68
2021/06/12 08:22:41;;;;;;;58.37;3.43;;;24.30;1.00;;;;;;4993448;28;20945;-68
2021/06/12 08:25:09;;;;;;;58.70;3.17;;;24.40;1.00;;;;;;4993476;28;20446;-68
2021/06/12 08:27:36;;;;;;;58.40;3.10;;;24.50;1.00;;;;;;4993115;28;20541;-68
2021/06/12 08:30:04;;;;;;;58.17;3.33;;;24.60;1.00;;;;;;4993515;28;20544;-67
2021/06/12 08:32:30;;;;;;;58.93;4.07;;;24.70;1.00;;;;;;4993464;28;20456;-67
2021/06/12 08:34:57;;;;;;;57.97;2.40;;;24.80;1.00;;;;;;4993616;28;20543;-68
2021/06/12 08:37:23;;;;;;;57.93;2.63;;;24.90;1.00;;;;;;4993011;28;20977;-68
2021/06/12 08:39:52;;;;;;;57.80;2.70;;;25.00;1.00;;;;;;4993036;28;20473;-68
2021/06/12 08:42:18;;;;;;;57.97;2.40;;;25.10;1.00;;;;;;4992469;28;20447;-69
2021/06/12 08:44:47;;;;;;;58.97;3.97;;;25.20;1.00;;;;;;5004416;28;20579;-68
2021/06/12 08:47:13;;;;;;;58.67;3.67;;;25.40;1.00;;;;;;5012451;28;20450;-68
2021/06/12 08:49:40;;;;;;;58.37;3.13;;;25.50;1.00;;;;;;5012450;28;20499;-68
2021/06/12 08:52:07;;;;;;;58.83;2.73;;;25.60;1.00;;;;;;5012634;28;20459;-68
2021/06/12 08:54:33;;;;;;;58.83;2.97;;;25.70;1.00;;;;;;5012349;28;21009;-68
2021/06/12 08:57:01;;;;;;;57.93;2.70;;;25.80;1.00;;;;;;5012465;28;20547;-68
2021/06/12 08:59:34;;;;;;;58.50;3.23;;;25.80;1.00;;;;;;5012506;28;20569;-67
2021/06/12 09:02:00;;;;;;;57.90;2.67;;;25.90;1.00;;;;;;5012595;28;20477;-67
2021/06/12 09:04:28;;;;;;;58.50;2.97;;;25.90;1.00;;;;;;5012369;28;21060;-69
2021/06/12 09:07:17;;;;;;;59.43;3.17;;;26.00;1.00;;;;;;5012530;28;20534;-68
2021/06/12 09:09:43;;;;;;;58.37;2.70;;;26.00;1.00;;;;;;5011932;28;21001;-68
2021/06/12 09:12:11;;;;;;;58.07;2.70;;;26.10;1.00;;;;;;5012150;28;20550;-67
2021/06/12 09:14:38;;;;;;;58.10;2.80;;;26.30;1.00;;;;;;5008875;28;20573;-68
2021/06/12 09:17:04;;;;;;;58.50;2.63;;;26.30;1.00;;;;;;4992473;28;20449;-68
2021/06/12 09:19:39;;;;;;;58.40;2.90;;;26.40;1.00;;;;;;4992263;28;20490;-67
2021/06/12 09:22:06;;;;;;;58.37;2.63;;;26.50;1.00;;;;;;5006562;28;20498;-69
2021/06/12 09:24:37;;;;;;;58.03;2.90;;;26.60;1.00;;;;;;5010909;28;20459;-67
2021/06/12 09:27:04;;;;;;;57.80;2.40;;;26.60;1.00;;;;;;4992924;28;20539;-68
2021/06/12 09:29:36;;;;;;;58.37;2.70;;;26.60;1.00;;;;;;4992423;28;20481;-68
2021/06/12 09:32:10;;;;;;;58.00;2.10;;;26.70;1.00;;;;;;4992457;28;20457;-67
2021/06/12 09:34:37;;;;;;;58.43;2.40;;;26.80;1.00;;;;;;4992496;28;20554;-67
2021/06/12 09:37:10;;;;;;;58.00;2.30;;;27.00;1.00;;;;;;4992472;28;20485;-68
2021/06/12 09:39:37;;;;;;;58.07;2.87;;;27.10;1.00;;;;;;4992238;28;20568;-68
2021/06/12 09:42:04;;;;;;;57.87;2.20;;;27.10;1.00;;;;;;4992274;28;20486;-68
2021/06/12 09:44:32;;;;;;;57.90;2.30;;;27.20;1.00;;;;;;4992056;28;20532;-67
2021/06/12 09:47:01;;;;;;;57.93;2.60;;;27.30;1.00;;;;;;4992189;28;20464;-68
2021/06/12 09:49:33;;;;;;;58.07;2.40;;;27.40;1.00;;;;;;4992018;28;20470;-67
2021/06/12 09:52:06;;;;;;;58.20;2.50;;;27.50;1.00;;;;;;4992139;28;20586;-68
2021/06/12 09:54:37;;;;;;;57.90;2.77;;;27.60;1.00;;;;;;4990857;28;20491;-68
2021/06/12 09:57:04;;;;;;;57.67;2.10;;;27.70;1.00;;;;;;4991569;28;20837;-69
2021/06/12 09:59:41;;;;;;;57.83;2.20;;;27.80;1.00;;;;;;4991914;28;20482;-68
2021/06/12 10:02:09;;;;;;;58.17;2.67;;;27.80;1.00;;;;;;4992048;28;20473;-69
2021/06/12 10:04:36;;;;;;;57.97;2.67;;;27.90;1.00;;;;;;4992023;28;20901;-69
2021/06/12 10:07:02;;;;;;;57.97;2.40;;;27.90;1.00;;;;;;4991843;28;20461;-68
2021/06/12 10:09:29;;;;;;;57.57;2.13;;;28.20;1.00;;;;;;4991285;28;20561;-69
2021/06/12 10:11:55;;;;;;;57.70;2.30;;;28.30;1.00;;;;;;4992208;28;20482;-68
2021/06/12 10:14:22;;;;;;;58.27;2.43;;;28.40;1.00;;;;;;4991910;28;21078;-68
2021/06/12 10:16:50;;;;;;;58.00;2.30;;;28.40;1.00;;;;;;4991936;28;20504;-68
2021/06/12 10:19:19;;;;;;;58.60;2.53;;;28.40;1.00;;;;;;4991824;28;20471;-69
2021/06/12 10:21:47;;;;;;;57.73;2.20;;;28.50;1.00;;;;;;4993696;28;21025;-68
2021/06/12 10:24:14;;;;;;;57.83;2.63;;;28.70;1.00;;;;;;4995340;28;20442;-68
2021/06/12 10:26:42;;;;;;;57.90;2.60;;;29.20;1.00;;;;;;4994436;28;20462;-68
2021/06/12 10:29:08;;;;;;;57.77;2.40;;;30.10;1.00;;;;;;4995279;28;20534;-69
2021/06/12 10:31:37;;;;;;;57.87;2.40;;;31.20;1.00;;;;;;4995493;28;20573;-68
2021/06/12 10:34:04;;;;;;;57.90;2.23;;;32.20;1.00;;;;;;4995407;28;20482;-68
2021/06/12 10:36:33;;;;;;;57.60;2.30;;;33.00;1.00;;;;;;4998951;28;20489;-69
2021/06/12 10:39:01;;;;;;;57.37;2.17;;;33.90;1.00;;;;;;5015169;28;20473;-69
2021/06/12 10:41:28;;;;;;;57.27;2.10;;;34.70;1.00;;;;;;5015136;28;20536;-69
2021/06/12 10:43:57;;;;;;;57.47;2.40;;;35.40;1.00;;;;;;5014959;28;20526;-69
2021/06/12 10:46:25;;;;;;;57.13;1.93;;;36.00;1.00;;;;;;5014689;28;20446;-70
2021/06/12 10:48:53;;;;;;;57.17;2.30;;;36.30;1.00;;;;;;5014664;28;20565;-69
2021/06/12 10:51:46;;;;;;;57.30;2.53;;;36.50;1.00;;;;;;5014688;28;21001;-69
2021/06/12 10:54:23;;;;;;;57.17;2.30;;;36.70;1.00;;;;;;5014802;28;20572;-69
2021/06/12 10:56:53;;;;;;;57.20;2.20;;;36.50;1.00;;;;;;5014524;28;20961;-70
2021/06/12 10:59:39;;;;;;;57.07;2.10;;;36.60;1.00;;;;;;5014465;28;21059;-68
2021/06/12 11:02:09;;;;;;;57.87;2.47;;;36.80;1.00;;;;;;5013376;28;20450;-69
2021/06/12 11:04:56;;;;;;;57.27;2.30;;;37.20;1.00;;;;;;5014580;28;20457;-68
2021/06/12 11:07:30;;;;;;;57.07;2.00;;;37.10;1.00;;;;;;5013872;28;20477;-68
2021/06/12 11:10:22;;;;;;;57.40;2.20;;;37.20;1.00;;;;;;5014260;28;20454;-69
2021/06/12 11:12:49;;;;;;;56.87;2.10;;;37.20;1.00;;;;;;5014486;28;20761;-69
2021/06/12 11:15:27;;;;;;;57.00;2.40;;;37.30;1.00;;;;;;5014434;28;20947;-67
2021/06/12 11:18:12;;;;;;;57.07;2.03;;;37.70;1.00;;;;;;5014040;28;20516;-67
2021/06/12 11:20:42;;;;;;;57.37;2.77;;;38.30;1.00;;;;;;5014266;28;20453;-67
2021/06/12 11:23:11;;;;;;;57.10;2.50;;;38.60;1.00;;;;;;5014499;28;20510;-67
2021/06/12 11:25:44;;;;;;;56.97;2.23;;;38.10;1.00;;;;;;5014090;28;20943;-67
2021/06/12 11:28:31;;;;;;;57.27;2.47;;;38.10;1.00;;;;;;5013976;28;20556;-67
2021/06/12 11:31:27;;;;;;;57.10;2.30;;;38.30;1.00;;;;;;5013907;28;20446;-68
2021/06/12 11:34:26;;;;;;;57.00;2.00;;;38.70;1.00;;;;;;5013819;28;20474;-67
2021/06/12 11:37:14;;;;;;;56.90;2.40;;;38.90;1.00;;;;;;5013613;28;20508;-67
2021/06/12 11:39:50;;;;;;;56.60;1.60;;;38.50;1.00;;;;;;5013997;28;20544;-68
2021/06/12 11:42:17;;;;;;;57.00;1.90;;;37.60;1.00;;;;;;5014063;28;20884;-67
2021/06/12 11:44:43;;;;;;;56.97;2.07;;;36.70;1.00;;;;;;5014001;28;20451;-68
2021/06/12 11:47:09;;;;;;;57.23;2.10;;;35.90;1.00;;;;;;5013621;28;20446;-68
2021/06/12 11:49:35;;;;;;;57.47;2.20;;;35.20;1.00;;;;;;5013499;28;20478;-67
2021/06/12 11:52:02;;;;;;;58.37;2.00;;;34.80;1.00;;;;;;5013885;28;20501;-67
2021/06/12 11:54:31;;;;;;;57.53;2.33;;;34.20;1.00;;;;;;5013638;28;20573;-67
2021/06/12 11:57:02;;;;;;;57.60;2.30;;;34.00;1.00;;;;;;5013476;28;20485;-68
2021/06/12 11:59:32;;;;;;;57.27;2.30;;;34.60;1.00;;;;;;5013299;28;20540;-68
2021/06/12 12:02:00;;;;;;;57.87;2.67;;;35.50;1.00;;;;;;5013271;28;20958;-68
2021/06/12 12:04:33;;;;;;;57.57;2.27;;;36.60;1.00;;;;;;5013554;28;20508;-68
2021/06/12 12:07:00;;;;;;;56.90;1.90;;;37.20;1.00;;;;;;5013363;28;20450;-68
2021/06/12 12:09:29;;;;;;;56.93;2.00;;;37.90;1.00;;;;;;5013211;28;20553;-67
2021/06/12 12:11:57;;;;;;;56.90;2.30;;;38.50;1.00;;;;;;5013302;28;20533;-68
2021/06/12 12:14:30;;;;;;;57.20;2.80;;;38.90;1.00;;;;;;5013065;28;20484;-68
2021/06/12 12:16:57;;;;;;;56.97;2.27;;;39.20;1.00;;;;;;5013185;28;20450;-67
2021/06/12 12:19:23;;;;;;;57.13;2.33;;;39.30;1.00;;;;;;5013180;28;20502;-68
2021/06/12 12:21:51;;;;;;;56.97;2.00;;;39.00;1.00;;;;;;5013541;28;20533;-68
2021/06/12 12:24:18;;;;;;;57.13;2.37;;;38.80;1.00;;;;;;5013197;28;20442;-68
2021/06/12 12:26:59;;;;;;;56.73;2.07;;;38.70;1.00;;;;;;5012863;28;20545;-68
2021/06/12 12:29:29;;;;;;;57.10;2.17;;;38.50;1.00;;;;;;5013080;28;20524;-68
2021/06/12 12:31:59;;;;;;;57.50;2.60;;;38.40;1.00;;;;;;5012771;28;20962;-68
2021/06/12 12:34:29;;;;;;;57.13;1.97;;;38.70;1.00;;;;;;5012980;28;20486;-67
2021/06/12 12:36:56;;;;;;;56.80;1.90;;;38.80;1.00;;;;;;5013062;28;20461;-68
2021/06/12 12:39:23;;;;;;;56.77;1.90;;;38.40;1.00;;;;;;5012544;28;20546;-67
2021/06/12 12:41:53;;;;;;;56.90;2.00;;;38.40;1.00;;;;;;5012950;28;20472;-68
2021/06/12 12:44:19;;;;;;;57.30;2.57;;;37.90;1.00;;;;;;5012204;28;20456;-68
2021/06/12 12:46:48;;;;;;;59.30;3.97;;;37.30;1.00;;;;;;5012357;28;20593;-67
2021/06/12 12:49:19;;;;;;;57.13;2.13;;;36.80;1.00;;;;;;5012629;28;20497;-68
2021/06/12 12:51:53;;;;;;;58.27;2.30;;;36.60;1.00;;;;;;5012440;28;20546;-68
2021/06/12 12:54:20;;;;;;;57.37;2.60;;;36.60;1.00;;;;;;5012643;28;20525;-68
2021/06/12 12:56:49;;;;;;;57.00;2.30;;;36.30;1.00;;;;;;5012174;28;20529;-69